Time;durP1;ratioP1;P1;durP2;ratioP2;P2;SDS_P1;SDS_P2;PMS_P1;PMS_P2;Temp;Humidity;BMP_temperature;BMP_pressure;BME280_temperature;BME280_humidity;BME280_pressure;Samples;Min_cycle;Max_cycle;Signal;HPM_P1;HPM_P2
2022/03/28 04:03:45;;;;;;;24.40;14.00;;;1.70;99.90;;;;;;5749214;23;20548;-74
2022/03/28 04:06:13;;;;;;;27.90;16.07;;;1.70;99.90;;;;;;4964883;28;20533;-73
2022/03/28 04:08:41;;;;;;;24.10;15.20;;;1.70;99.90;;;;;;4976426;28;20468;-73
2022/03/28 04:11:09;;;;;;;24.73;15.43;;;1.70;99.90;;;;;;4976327;28;20553;-74
2022/03/28 04:13:37;;;;;;;21.27;12.57;;;1.60;99.90;;;;;;4976416;28;20967;-73
2022/03/28 04:16:08;;;;;;;16.93;10.97;;;1.60;99.90;;;;;;4976501;28;20462;-73
2022/03/28 04:18:37;;;;;;;21.27;11.47;;;1.60;99.90;;;;;;4976283;28;20529;-74
2022/03/28 04:21:06;;;;;;;17.73;11.00;;;1.60;99.90;;;;;;4976221;28;20839;-75
2022/03/28 04:23:36;;;;;;;16.67;10.83;;;1.60;99.90;;;;;;4958086;28;20450;-75
2022/03/28 04:26:04;;;;;;;15.27;10.33;;;1.50;99.90;;;;;;4956774;29;20557;-74
2022/03/28 04:28:32;;;;;;;17.47;10.07;;;1.50;99.90;;;;;;4957393;29;20844;-74
2022/03/28 04:31:00;;;;;;;16.27;10.03;;;1.40;99.90;;;;;;4958979;28;20843;-74
2022/03/28 04:33:32;;;;;;;15.43;9.40;;;1.40;99.90;;;;;;4976309;28;20621;-72
2022/03/28 04:36:01;;;;;;;16.03;9.17;;;1.40;99.90;;;;;;4965775;28;20874;-75
2022/03/28 04:38:30;;;;;;;14.00;9.73;;;1.40;99.90;;;;;;4956427;28;20514;-73
2022/03/28 04:40:58;;;;;;;16.97;9.97;;;1.40;99.90;;;;;;4956127;28;20450;-72
2022/03/28 04:43:27;;;;;;;15.57;9.40;;;1.40;99.90;;;;;;4957001;29;20489;-74
2022/03/28 04:45:55;;;;;;;15.13;9.87;;;1.40;99.90;;;;;;4956480;28;20451;-73
2022/03/28 04:48:24;;;;;;;13.20;9.37;;;1.40;99.90;;;;;;4956857;28;20937;-71
2022/03/28 04:50:52;;;;;;;15.60;10.00;;;1.30;99.90;;;;;;4956494;28;20448;-71
2022/03/28 04:53:20;;;;;;;16.17;9.77;;;1.30;99.90;;;;;;4956173;29;20488;-72
2022/03/28 04:55:50;;;;;;;14.43;10.37;;;1.30;99.90;;;;;;4956588;28;20465;-71
2022/03/28 04:58:18;;;;;;;16.97;9.90;;;1.30;99.90;;;;;;4965815;28;20493;-73
2022/03/28 05:00:46;;;;;;;18.63;10.30;;;1.30;99.90;;;;;;4972359;28;20510;-74
2022/03/28 05:03:15;;;;;;;21.53;9.97;;;1.30;99.90;;;;;;4962687;28;20443;-73
2022/03/28 05:05:43;;;;;;;16.40;10.43;;;1.30;99.90;;;;;;4946468;29;20451;-74
2022/03/28 05:08:12;;;;;;;15.30;10.17;;;1.30;99.90;;;;;;4947374;29;20446;-72
2022/03/28 05:10:40;;;;;;;14.97;10.73;;;1.30;99.90;;;;;;4945115;29;20492;-73
2022/03/28 05:13:10;;;;;;;18.67;10.60;;;1.30;99.90;;;;;;4952838;28;20482;-73
2022/03/28 05:15:38;;;;;;;15.10;10.70;;;1.40;99.90;;;;;;4954573;28;20494;-74
2022/03/28 05:18:06;;;;;;;16.23;11.00;;;1.30;99.90;;;;;;4954096;29;20521;-73
2022/03/28 05:20:35;;;;;;;20.90;10.77;;;1.40;99.90;;;;;;4953560;28;20581;-73
2022/03/28 05:23:03;;;;;;;17.13;10.73;;;1.40;99.90;;;;;;4955642;29;20538;-74
2022/03/28 05:25:31;;;;;;;18.40;10.17;;;1.40;99.90;;;;;;4955081;29;20988;-72
2022/03/28 05:27:59;;;;;;;17.27;10.13;;;1.50;99.90;;;;;;4955992;29;20542;-72
2022/03/28 05:30:28;;;;;;;19.23;10.93;;;1.50;99.90;;;;;;4956023;29;20465;-75
2022/03/28 05:32:57;;;;;;;19.53;10.27;;;1.60;99.90;;;;;;4956475;28;20458;-73
2022/03/28 05:35:25;;;;;;;17.83;9.67;;;1.50;99.90;;;;;;4956344;29;20490;-73
2022/03/28 05:37:53;;;;;;;15.03;10.33;;;1.60;99.90;;;;;;4956195;28;20486;-73
2022/03/28 05:40:22;;;;;;;13.63;9.60;;;1.70;99.90;;;;;;4955702;28;20533;-72
2022/03/28 05:42:50;;;;;;;16.70;10.23;;;2.60;99.90;;;;;;4956173;28;20486;-73
2022/03/28 05:45:18;;;;;;;16.87;10.20;;;2.50;99.90;;;;;;4956035;28;20543;-74
2022/03/28 05:47:48;;;;;;;19.50;10.57;;;2.40;99.90;;;;;;4956015;28;20474;-74
2022/03/28 05:50:16;;;;;;;15.73;9.47;;;2.40;99.90;;;;;;4955838;29;20466;-76
2022/03/28 05:52:44;;;;;;;12.83;9.93;;;2.50;99.90;;;;;;4955834;28;20550;-73
2022/03/28 05:55:12;;;;;;;16.53;10.60;;;2.50;99.90;;;;;;4956207;28;20459;-73
2022/03/28 05:57:41;;;;;;;16.47;10.40;;;2.50;99.90;;;;;;4955846;28;20466;-73
2022/03/28 06:00:10;;;;;;;12.80;10.23;;;2.50;99.90;;;;;;4955503;29;20558;-74
2022/03/28 06:02:38;;;;;;;17.17;10.40;;;2.60;99.90;;;;;;4957198;29;20522;-73
2022/03/28 06:05:09;;;;;;;14.27;10.20;;;2.70;99.90;;;;;;4956096;28;20487;-74
2022/03/28 06:07:37;;;;;;;17.07;10.17;;;2.80;99.90;;;;;;4956198;28;20459;-74
2022/03/28 06:10:07;;;;;;;16.97;9.87;;;2.90;99.90;;;;;;4955660;29;20554;-74
2022/03/28 06:12:35;;;;;;;17.67;10.73;;;3.00;99.90;;;;;;4955699;29;20307;-74
2022/03/28 06:15:03;;;;;;;17.23;10.20;;;3.10;99.90;;;;;;4955589;29;20235;-74
2022/03/28 06:17:31;;;;;;;16.70;10.23;;;3.30;99.90;;;;;;4955662;29;20299;-75
2022/03/28 06:20:02;;;;;;;15.07;10.20;;;3.50;99.90;;;;;;4950952;28;20257;-76
2022/03/28 06:22:35;;;;;;;15.73;9.73;;;3.70;99.90;;;;;;4947732;28;20216;-77
2022/03/28 06:25:04;;;;;;;17.10;10.70;;;3.80;99.90;;;;;;4952536;29;20237;-75
2022/03/28 06:27:52;;;;;;;20.70;13.40;;;4.10;99.90;;;;;;4953123;28;20217;-80
2022/03/28 06:30:20;;;;;;;20.47;11.37;;;4.30;99.90;;;;;;4953098;29;20302;-80
2022/03/28 06:32:49;;;;;;;22.70;10.87;;;4.70;99.90;;;;;;4973833;28;20239;-80
2022/03/28 06:35:17;;;;;;;17.03;10.03;;;5.00;99.90;;;;;;4973542;28;20680;-80
2022/03/28 06:37:50;;;;;;;16.80;10.13;;;5.60;99.90;;;;;;4975125;28;20241;-76
2022/03/28 06:40:20;;;;;;;15.40;9.97;;;6.30;99.90;;;;;;4975629;28;20301;-78
2022/03/28 06:42:49;;;;;;;15.17;9.83;;;7.10;99.90;;;;;;4973749;28;20235;-78
2022/03/28 06:45:17;;;;;;;13.80;8.77;;;7.70;99.90;;;;;;4973304;28;20225;-76
2022/03/28 06:47:51;;;;;;;20.27;9.60;;;8.40;99.90;;;;;;4972686;28;20211;-75
2022/03/28 06:50:21;;;;;;;17.77;9.97;;;9.50;99.90;;;;;;4972523;28;20199;-77
2022/03/28 06:52:51;;;;;;;12.37;8.73;;;10.30;99.90;;;;;;4965947;28;20297;-79
2022/03/28 06:55:20;;;;;;;15.67;9.10;;;11.00;99.30;;;;;;4972909;28;20580;-76
2022/03/28 06:57:48;;;;;;;16.63;9.23;;;11.40;97.50;;;;;;4971213;28;20266;-74
2022/03/28 07:00:17;;;;;;;18.63;9.47;;;12.20;96.40;;;;;;4974135;28;20274;-74
2022/03/28 07:02:45;;;;;;;19.37;9.77;;;12.90;94.80;;;;;;4974381;28;20211;-73
2022/03/28 07:05:14;;;;;;;14.63;9.47;;;13.50;93.00;;;;;;4974975;28;20645;-76
2022/03/28 07:07:44;;;;;;;21.43;9.80;;;13.80;91.70;;;;;;4967469;28;20209;-74
2022/03/28 07:10:15;;;;;;;14.47;9.90;;;14.70;90.20;;;;;;4972909;28;20614;-78
2022/03/28 07:12:43;;;;;;;12.40;11.10;;;15.30;87.20;;;;;;4974185;28;20207;-77
2022/03/28 07:15:13;;;;;;;13.73;10.27;;;16.30;84.30;;;;;;4977055;28;20218;-77
2022/03/28 07:17:51;;;;;;;14.03;9.17;;;16.90;80.50;;;;;;4977762;28;20249;-74
2022/03/28 07:20:20;;;;;;;11.57;9.47;;;17.20;78.70;;;;;;4977435;28;20240;-75
2022/03/28 07:22:49;;;;;;;14.73;10.33;;;17.60;77.20;;;;;;4992172;28;20242;-75
2022/03/28 07:25:19;;;;;;;12.50;9.67;;;17.80;74.40;;;;;;4986453;28;20227;-77
2022/03/28 07:27:50;;;;;;;17.47;9.70;;;17.80;73.70;;;;;;4989394;28;20246;-75
2022/03/28 07:30:19;;;;;;;12.40;10.13;;;18.50;72.50;;;;;;4982434;28;20235;-78
2022/03/28 07:32:50;;;;;;;12.23;10.37;;;18.60;70.40;;;;;;4986280;28;20211;-77
2022/03/28 07:35:20;;;;;;;15.57;10.70;;;19.20;68.00;;;;;;4984860;28;20211;-79
2022/03/28 07:37:48;;;;;;;14.33;10.00;;;20.10;64.60;;;;;;4977927;28;20245;-77
2022/03/28 07:40:17;;;;;;;14.37;9.97;;;20.00;63.80;;;;;;4980121;28;20227;-75
2022/03/28 07:42:46;;;;;;;16.00;10.80;;;20.30;64.00;;;;;;4978187;28;20203;-76
2022/03/28 07:45:15;;;;;;;13.47;10.13;;;20.90;61.00;;;;;;4981975;28;20238;-78
2022/03/28 07:47:44;;;;;;;17.30;10.10;;;21.00;61.10;;;;;;4977360;28;20257;-77
2022/03/28 07:50:13;;;;;;;13.52;9.90;;;21.00;61.40;;;;;;4974580;28;20095;-76
2022/03/28 07:52:41;;;;;;;15.07;10.63;;;21.50;58.40;;;;;;4973516;28;20657;-75
2022/03/28 07:55:11;;;;;;;13.10;9.80;;;21.50;57.90;;;;;;4968224;28;20251;-76
2022/03/28 07:57:41;;;;;;;18.52;10.57;;;22.00;57.50;;;;;;4970059;28;20246;-75
2022/03/28 08:00:14;;;;;;;13.60;9.75;;;22.20;56.40;;;;;;4972202;28;20230;-75
2022/03/28 08:02:52;;;;;;;13.07;9.25;;;22.90;56.80;;;;;;4971150;28;20246;-75
2022/03/28 08:05:23;;;;;;;16.27;8.95;;;22.90;55.90;;;;;;4967971;28;20215;-77
2022/03/28 08:07:53;;;;;;;15.02;9.25;;;23.80;56.00;;;;;;4974348;28;20291;-79
2022/03/28 08:10:22;;;;;;;14.13;10.60;;;23.70;55.40;;;;;;4972553;28;20294;-76
2022/03/28 08:12:53;;;;;;;16.13;10.63;;;24.00;55.40;;;;;;4973090;28;20253;-78
2022/03/28 08:15:22;;;;;;;12.90;10.75;;;23.80;53.40;;;;;;4974199;28;20222;-79
2022/03/28 08:17:51;;;;;;;15.05;11.18;;;24.40;53.00;;;;;;4975749;28;20897;-77
2022/03/28 08:20:19;;;;;;;14.45;11.10;;;24.10;51.90;;;;;;4976311;28;20215;-75
2022/03/28 08:22:50;;;;;;;15.88;10.93;;;24.00;52.10;;;;;;4976548;28;20317;-78
2022/03/28 08:25:22;;;;;;;15.68;11.27;;;23.60;53.10;;;;;;4975999;28;20202;-77
2022/03/28 08:27:52;;;;;;;18.10;12.48;;;23.70;52.20;;;;;;4976103;28;20262;-77
2022/03/28 08:30:20;;;;;;;17.08;11.45;;;23.60;52.30;;;;;;4975892;28;20230;-78
2022/03/28 08:32:48;;;;;;;17.52;12.27;;;24.30;51.70;;;;;;4977464;28;20207;-78
2022/03/28 08:35:17;;;;;;;15.75;12.18;;;23.70;51.10;;;;;;4975553;28;20446;-80
2022/03/28 08:37:46;;;;;;;15.85;12.02;;;24.30;52.60;;;;;;4978430;28;20211;-80
2022/03/28 08:40:15;;;;;;;15.35;11.93;;;24.40;52.20;;;;;;4976930;28;20211;-79
2022/03/28 08:42:43;;;;;;;18.60;12.80;;;24.50;52.40;;;;;;4977320;28;20223;-76
2022/03/28 08:45:14;;;;;;;19.05;12.13;;;25.10;51.40;;;;;;4979863;28;20214;-80
2022/03/28 08:47:45;;;;;;;19.90;13.63;;;25.80;49.50;;;;;;4984888;28;20211;-79
2022/03/28 08:50:33;;;;;;;15.73;12.57;;;25.60;50.10;;;;;;5011408;28;20240;-79
2022/03/28 08:53:02;;;;;;;17.00;12.30;;;25.80;49.00;;;;;;4994925;28;20202;-77
2022/03/28 08:55:30;;;;;;;16.02;12.88;;;25.60;49.30;;;;;;4993383;28;20289;-76
2022/03/28 08:57:58;;;;;;;17.10;12.98;;;25.70;50.20;;;;;;4982363;28;20214;-78
2022/03/28 09:00:29;;;;;;;17.50;13.93;;;25.70;47.90;;;;;;4976870;28;20219;-78
2022/03/28 09:02:58;;;;;;;16.75;13.13;;;26.10;47.30;;;;;;4976660;28;20218;-76
2022/03/28 09:05:31;;;;;;;15.90;13.10;;;26.10;48.60;;;;;;4975643;28;20225;-77
2022/03/28 09:08:00;;;;;;;16.70;13.10;;;26.70;47.60;;;;;;4977802;28;20191;-75
2022/03/28 09:10:33;;;;;;;18.00;13.10;;;26.90;45.50;;;;;;4976531;28;20237;-77
2022/03/28 09:13:03;;;;;;;18.15;13.68;;;27.00;46.90;;;;;;4987034;28;20234;-78
2022/03/28 09:15:49;;;;;;;16.48;12.82;;;27.10;46.80;;;;;;4981505;28;20291;-75
2022/03/28 09:18:22;;;;;;;17.17;13.05;;;27.10;46.10;;;;;;4982081;28;20287;-77
2022/03/28 09:20:52;;;;;;;18.58;13.88;;;27.30;46.20;;;;;;4981803;28;20202;-76
2022/03/28 09:23:45;;;;;;;18.55;13.88;;;26.90;46.00;;;;;;4981634;28;20207;-78
2022/03/28 09:26:18;;;;;;;17.60;13.25;;;26.90;46.70;;;;;;4970355;28;20211;-78
2022/03/28 09:28:48;;;;;;;20.67;14.95;;;27.20;47.50;;;;;;4974693;28;20230;-78
2022/03/28 09:31:27;;;;;;;16.45;13.65;;;27.50;46.60;;;;;;4974121;28;20578;-77
2022/03/28 09:34:01;;;;;;;16.23;13.10;;;27.90;46.00;;;;;;4974560;28;20693;-80
2022/03/28 09:36:52;;;;;;;17.73;12.93;;;26.80;46.20;;;;;;4975013;28;20281;-78
2022/03/28 09:39:21;;;;;;;17.02;13.63;;;27.10;45.80;;;;;;4968872;28;20230;-80
2022/03/28 09:42:02;;;;;;;21.15;13.18;;;27.10;45.60;;;;;;4974927;28;20576;-74
2022/03/28 09:44:35;;;;;;;18.35;13.27;;;27.50;44.70;;;;;;4974405;28;20684;-77
2022/03/28 09:47:10;;;;;;;19.55;14.20;;;27.80;44.90;;;;;;4972795;28;20235;-78
2022/03/28 09:49:38;;;;;;;16.30;13.63;;;27.80;43.20;;;;;;4973511;28;20240;-75
2022/03/28 09:52:09;;;;;;;19.23;13.90;;;27.40;44.20;;;;;;4973452;28;20306;-74
2022/03/28 09:54:50;;;;;;;19.33;14.00;;;27.00;45.80;;;;;;4973499;28;20250;-77
2022/03/28 09:57:22;;;;;;;19.95;15.02;;;27.00;45.70;;;;;;4975190;28;20195;-74
2022/03/28 09:59:51;;;;;;;15.85;13.70;;;26.80;44.50;;;;;;4973397;28;20642;-74
2022/03/28 10:02:24;;;;;;;16.55;14.40;;;27.00;44.90;;;;;;4977850;28;20199;-77
2022/03/28 10:04:56;;;;;;;15.20;13.35;;;26.50;43.30;;;;;;4985645;28;20226;-74
2022/03/28 10:07:24;;;;;;;18.10;13.02;;;27.10;43.80;;;;;;4962962;28;20603;-77
2022/03/28 10:09:53;;;;;;;16.42;12.55;;;27.30;45.40;;;;;;4972468;28;20241;-79
2022/03/28 10:12:23;;;;;;;16.00;13.27;;;27.00;41.40;;;;;;4974453;28;20226;-81
2022/03/28 10:14:57;;;;;;;18.33;13.27;;;26.20;41.60;;;;;;4976877;28;20218;-77
2022/03/28 10:17:30;;;;;;;17.25;14.63;;;26.70;45.10;;;;;;4975780;28;20206;-79
2022/03/28 10:19:59;;;;;;;15.40;13.80;;;26.90;42.90;;;;;;4973399;28;20251;-76
2022/03/28 10:22:51;;;;;;;20.05;14.93;;;26.80;44.00;;;;;;4971127;28;20202;-79
2022/03/28 10:25:22;;;;;;;17.52;14.32;;;27.10;43.00;;;;;;4974251;28;20199;-77
2022/03/28 10:27:53;;;;;;;17.20;13.68;;;27.20;42.70;;;;;;4966356;28;20270;-77
2022/03/28 10:30:27;;;;;;;17.90;13.95;;;27.60;42.60;;;;;;4970775;28;20203;-76
2022/03/28 10:33:12;;;;;;;18.92;14.30;;;26.80;43.30;;;;;;4973082;28;20254;-75
2022/03/28 10:35:55;;;;;;;19.92;14.52;;;27.40;42.70;;;;;;4972088;28;20572;-77
2022/03/28 10:38:23;;;;;;;24.75;14.57;;;27.60;42.90;;;;;;4968270;28;20303;-77
2022/03/28 10:40:57;;;;;;;18.88;14.48;;;27.60;41.70;;;;;;4973099;28;20207;-77
2022/03/28 10:43:28;;;;;;;18.90;14.90;;;28.10;42.20;;;;;;4972779;28;20199;-74
2022/03/28 10:45:58;;;;;;;16.55;14.00;;;28.30;40.10;;;;;;4973448;28;20677;-76
2022/03/28 10:48:40;;;;;;;17.58;14.63;;;27.80;42.10;;;;;;4968029;28;20583;-75
2022/03/28 10:51:09;;;;;;;18.65;15.02;;;27.80;40.60;;;;;;4971838;28;20267;-76
2022/03/28 10:53:41;;;;;;;18.80;14.25;;;27.40;41.10;;;;;;4979300;28;20289;-75
2022/03/28 10:56:14;;;;;;;15.82;13.93;;;26.60;42.50;;;;;;4980290;28;20199;-76
2022/03/28 10:58:45;;;;;;;17.75;15.38;;;27.10;42.80;;;;;;4974850;28;20309;-78
2022/03/28 11:01:21;;;;;;;19.98;15.40;;;27.60;41.30;;;;;;4971180;28;20633;-76
2022/03/28 11:03:55;;;;;;;18.13;15.68;;;27.40;41.90;;;;;;4970970;28;20214;-76
2022/03/28 11:06:52;;;;;;;16.90;14.90;;;27.00;43.20;;;;;;4972741;28;20617;-77
2022/03/28 11:09:35;;;;;;;21.02;16.10;;;26.80;41.80;;;;;;4975256;28;20201;-79
2022/03/28 11:12:10;;;;;;;20.23;15.95;;;25.90;43.30;;;;;;4968968;28;20262;-79
2022/03/28 11:14:40;;;;;;;19.75;14.82;;;26.10;44.50;;;;;;4972285;28;20206;-79
2022/03/28 11:17:20;;;;;;;20.95;15.32;;;26.90;42.90;;;;;;4973389;28;20230;-78
2022/03/28 11:20:12;;;;;;;23.77;16.73;;;27.20;41.90;;;;;;4973037;28;20735;-78
2022/03/28 11:22:49;;;;;;;18.63;15.65;;;26.50;43.60;;;;;;4956951;28;20573;-79
2022/03/28 11:25:46;;;;;;;21.00;15.20;;;27.40;43.60;;;;;;4973063;28;20261;-77
2022/03/28 11:28:20;;;;;;;20.40;16.27;;;27.40;43.70;;;;;;4963765;28;20215;-80
2022/03/28 11:30:59;;;;;;;20.33;16.02;;;26.80;41.50;;;;;;4973880;28;20205;-80
2022/03/28 11:33:36;;;;;;;23.25;16.27;;;26.90;42.50;;;;;;4974220;28;20227;-82
2022/03/28 11:36:07;;;;;;;23.05;15.73;;;26.60;42.00;;;;;;4975671;28;20257;-80
2022/03/28 11:38:45;;;;;;;21.67;15.57;;;26.60;42.50;;;;;;4975065;28;20217;-81
2022/03/28 11:41:14;;;;;;;19.70;16.42;;;26.50;43.60;;;;;;4974529;28;20230;-79
2022/03/28 11:43:44;;;;;;;22.60;14.88;;;26.60;43.10;;;;;;4974617;28;20238;-81
2022/03/28 11:46:15;;;;;;;18.30;14.60;;;26.50;43.00;;;;;;4983687;28;20226;-80
2022/03/28 11:48:52;;;;;;;17.88;15.45;;;26.60;40.90;;;;;;4975814;28;20211;-77
2022/03/28 11:51:22;;;;;;;21.15;14.75;;;26.30;41.90;;;;;;4987332;28;20207;-77
2022/03/28 11:53:51;;;;;;;20.73;15.50;;;26.00;42.00;;;;;;4981226;28;20223;-77
2022/03/28 11:56:24;;;;;;;20.98;15.30;;;25.20;41.90;;;;;;4992294;28;20251;-78
2022/03/28 11:58:59;;;;;;;20.10;15.53;;;25.20;42.30;;;;;;4988384;28;20215;-75
2022/03/28 12:01:27;;;;;;;18.43;14.67;;;25.00;42.40;;;;;;4991504;28;20226;-76
2022/03/28 12:03:55;;;;;;;20.57;15.33;;;24.60;43.20;;;;;;4992559;28;20222;-75
2022/03/28 12:06:28;;;;;;;21.00;15.30;;;24.60;42.60;;;;;;4990293;28;20218;-77
2022/03/28 12:08:57;;;;;;;20.03;15.07;;;24.10;41.40;;;;;;4991358;28;20242;-76
2022/03/28 12:11:26;;;;;;;24.13;15.87;;;24.00;43.00;;;;;;4984648;28;20207;-77
2022/03/28 12:13:55;;;;;;;21.47;15.47;;;24.00;43.90;;;;;;4976882;28;20227;-77
2022/03/28 12:16:24;;;;;;;20.20;14.10;;;23.90;43.40;;;;;;4974768;28;20199;-78
2022/03/28 12:18:58;;;;;;;19.47;14.40;;;23.80;43.30;;;;;;4976870;28;20293;-76
2022/03/28 12:21:28;;;;;;;18.80;15.20;;;23.50;45.10;;;;;;4975324;28;20188;-77
2022/03/28 12:23:56;;;;;;;18.60;15.07;;;23.40;41.80;;;;;;4976905;28;20575;-77
2022/03/28 12:26:25;;;;;;;20.33;15.30;;;23.40;44.60;;;;;;4974177;28;20242;-77
2022/03/28 12:28:53;;;;;;;17.27;14.17;;;23.50;43.30;;;;;;4976643;28;20250;-78
2022/03/28 12:31:23;;;;;;;20.60;14.83;;;23.20;43.00;;;;;;4977235;28;20661;-79
2022/03/28 12:33:52;;;;;;;19.67;13.73;;;23.00;43.00;;;;;;4976997;28;20234;-77
2022/03/28 12:36:28;;;;;;;20.13;14.47;;;22.80;42.90;;;;;;4976433;28;20205;-79
2022/03/28 12:38:59;;;;;;;22.33;13.70;;;22.80;43.60;;;;;;4976162;28;20605;-76
2022/03/28 12:41:31;;;;;;;15.87;12.70;;;23.00;43.50;;;;;;4973856;28;20262;-75
2022/03/28 12:43:59;;;;;;;18.67;13.33;;;23.00;42.80;;;;;;4975744;28;20293;-77
2022/03/28 12:46:29;;;;;;;17.40;13.07;;;23.00;41.10;;;;;;4975238;28;20305;-76
2022/03/28 12:48:58;;;;;;;19.10;14.13;;;22.70;43.20;;;;;;4974897;28;20617;-78
2022/03/28 12:51:29;;;;;;;17.27;12.90;;;22.90;42.50;;;;;;4976185;28;20631;-78
2022/03/28 12:54:05;;;;;;;22.10;13.10;;;22.90;42.00;;;;;;4968337;28;20277;-76
2022/03/28 12:56:43;;;;;;;15.70;12.23;;;22.80;42.00;;;;;;4975868;28;20532;-77
2022/03/28 12:59:17;;;;;;;21.20;12.97;;;22.70;41.70;;;;;;4975571;28;20207;-76
2022/03/28 13:01:45;;;;;;;20.30;12.60;;;22.70;41.80;;;;;;4974977;28;20242;-76
2022/03/28 13:04:17;;;;;;;19.87;12.47;;;22.80;42.90;;;;;;4975429;28;20301;-77
2022/03/28 13:06:50;;;;;;;17.70;11.60;;;22.90;41.60;;;;;;4959354;28;20241;-78
2022/03/28 13:09:20;;;;;;;16.57;12.40;;;22.80;41.40;;;;;;4972431;28;20266;-76
2022/03/28 13:11:51;;;;;;;17.50;11.90;;;22.90;39.80;;;;;;4975658;28;20657;-77
2022/03/28 13:14:26;;;;;;;15.33;11.50;;;22.90;40.30;;;;;;4975793;28;20215;-78
2022/03/28 13:17:12;;;;;;;19.70;11.90;;;22.80;41.10;;;;;;4975916;28;20226;-76
2022/03/28 13:19:42;;;;;;;14.37;11.60;;;22.60;40.50;;;;;;4975138;28;20665;-75
2022/03/28 13:22:12;;;;;;;15.17;11.50;;;22.50;40.00;;;;;;4975222;28;20273;-77
2022/03/28 13:24:41;;;;;;;16.13;11.50;;;22.60;40.10;;;;;;4975999;28;20211;-74
2022/03/28 13:29:59;;;;;;;17.60;11.60;;;22.50;39.10;;;;;;4969341;28;20993;-78
2022/03/28 13:32:28;;;;;;;17.13;11.20;;;22.30;40.50;;;;;;4967408;28;20310;-76
2022/03/28 13:34:56;;;;;;;16.33;12.03;;;22.50;41.60;;;;;;4975926;28;20402;-78
2022/03/28 13:37:25;;;;;;;15.27;11.27;;;22.30;40.70;;;;;;4975391;28;20207;-78
2022/03/28 13:39:53;;;;;;;17.07;11.23;;;22.60;40.50;;;;;;4975253;28;20211;-77
2022/03/28 13:42:22;;;;;;;21.70;11.80;;;22.40;40.60;;;;;;4976079;28;20765;-75
2022/03/28 13:44:50;;;;;;;15.77;11.23;;;22.40;40.60;;;;;;4975576;28;20238;-75
2022/03/28 13:47:21;;;;;;;18.63;11.27;;;22.40;39.90;;;;;;4975490;28;20566;-77
2022/03/28 13:49:49;;;;;;;17.00;11.70;;;22.30;40.40;;;;;;4968036;28;20636;-76
2022/03/28 13:52:17;;;;;;;17.87;11.70;;;22.20;39.70;;;;;;4972961;28;20207;-75
2022/03/28 13:54:48;;;;;;;16.30;10.33;;;22.30;40.00;;;;;;4973504;28;20273;-74
2022/03/28 13:57:16;;;;;;;15.20;11.50;;;22.40;41.90;;;;;;4973962;28;20241;-75
2022/03/28 13:59:44;;;;;;;14.83;11.10;;;22.50;39.50;;;;;;4974361;28;20286;-75
2022/03/28 14:02:12;;;;;;;15.10;11.10;;;22.50;40.60;;;;;;4974547;28;20231;-76
2022/03/28 14:04:41;;;;;;;16.60;11.57;;;22.50;40.70;;;;;;4974857;28;20230;-76
2022/03/28 14:07:10;;;;;;;15.00;11.20;;;22.50;39.00;;;;;;4973729;28;22212;-75
2022/03/28 14:09:38;;;;;;;15.80;11.87;;;22.40;39.40;;;;;;4974365;28;20254;-76
2022/03/28 14:12:08;;;;;;;18.17;11.07;;;22.40;39.00;;;;;;4973474;28;20315;-75
2022/03/28 14:14:37;;;;;;;19.00;11.50;;;22.50;39.40;;;;;;4974395;28;20301;-74
2022/03/28 14:17:05;;;;;;;13.77;11.83;;;22.40;38.70;;;;;;4970323;28;20223;-77
2022/03/28 14:19:34;;;;;;;14.10;11.30;;;22.20;38.70;;;;;;4966973;28;20342;-76
2022/03/28 14:22:02;;;;;;;15.77;11.43;;;22.00;39.50;;;;;;4973918;28;20550;-78
2022/03/28 14:24:30;;;;;;;16.07;11.57;;;21.90;40.20;;;;;;4974848;28;20203;-75
2022/03/28 14:26:58;;;;;;;14.50;11.00;;;21.90;41.10;;;;;;4974035;28;20558;-77
2022/03/28 14:29:34;;;;;;;17.47;11.30;;;21.90;40.10;;;;;;4973967;28;20246;-76
2022/03/28 14:32:04;;;;;;;15.97;12.33;;;21.80;39.60;;;;;;4973832;28;20727;-76
2022/03/28 14:34:32;;;;;;;16.27;11.40;;;21.90;40.00;;;;;;4973348;28;20265;-78
2022/03/28 14:37:00;;;;;;;16.70;11.13;;;21.90;38.60;;;;;;4972493;28;20318;-77
2022/03/28 14:39:29;;;;;;;16.13;11.50;;;21.80;37.80;;;;;;4973307;28;20286;-76
2022/03/28 14:41:56;;;;;;;15.07;10.53;;;21.70;37.60;;;;;;4976989;28;20234;-75
2022/03/28 14:44:25;;;;;;;15.23;11.93;;;21.70;36.80;;;;;;4971694;28;20255;-74
2022/03/28 14:47:03;;;;;;;17.63;11.93;;;21.70;39.00;;;;;;4971282;28;20266;-76
2022/03/28 14:49:31;;;;;;;14.77;10.80;;;21.60;38.50;;;;;;4982265;28;20630;-74
2022/03/28 14:51:59;;;;;;;15.70;10.70;;;21.60;39.00;;;;;;4990219;28;20214;-75
2022/03/28 14:54:28;;;;;;;18.57;11.17;;;21.50;38.90;;;;;;4989415;28;20227;-75
2022/03/28 14:56:56;;;;;;;13.80;11.33;;;21.50;37.90;;;;;;4988426;28;20262;-78
2022/03/28 14:59:25;;;;;;;14.60;11.23;;;21.40;38.10;;;;;;4980791;28;20211;-77
2022/03/28 15:01:54;;;;;;;13.03;10.27;;;21.30;37.50;;;;;;4973507;28;20306;-76
2022/03/28 15:04:23;;;;;;;13.60;11.03;;;21.30;40.10;;;;;;4973038;28;20302;-80
2022/03/28 15:06:51;;;;;;;16.47;10.83;;;21.20;40.50;;;;;;4973300;28;20215;-74
2022/03/28 15:09:21;;;;;;;15.03;12.07;;;21.40;41.40;;;;;;4964578;28;20669;-77
2022/03/28 15:11:49;;;;;;;17.00;11.73;;;21.20;37.00;;;;;;4960917;28;20233;-77
2022/03/28 15:14:17;;;;;;;13.53;9.03;;;21.10;37.10;;;;;;4970412;28;20262;-79
2022/03/28 15:16:45;;;;;;;14.33;10.90;;;21.10;41.40;;;;;;4971600;28;20825;-78
2022/03/28 15:19:18;;;;;;;19.20;11.00;;;21.10;41.50;;;;;;4972373;28;20418;-77
2022/03/28 15:21:46;;;;;;;14.57;10.87;;;21.00;41.60;;;;;;4972584;28;20245;-77
2022/03/28 15:24:14;;;;;;;18.63;11.87;;;20.90;41.70;;;;;;4974261;28;20221;-74
2022/03/28 15:26:43;;;;;;;18.67;11.53;;;20.90;40.60;;;;;;4977858;28;20215;-74
2022/03/28 15:29:11;;;;;;;15.40;10.80;;;21.00;41.60;;;;;;4969388;28;20654;-75
2022/03/28 15:31:42;;;;;;;14.33;10.77;;;20.80;40.90;;;;;;4971660;28;20575;-79
2022/03/28 15:34:13;;;;;;;15.63;10.67;;;20.80;41.30;;;;;;4976643;28;20210;-78
2022/03/28 15:36:44;;;;;;;16.37;10.80;;;20.70;40.90;;;;;;4958770;28;20211;-80
2022/03/28 15:39:13;;;;;;;14.67;11.30;;;20.80;42.70;;;;;;4970122;28;20199;-79
2022/03/28 15:41:42;;;;;;;17.57;11.80;;;20.70;41.90;;;;;;4975824;28;20638;-79
2022/03/28 15:44:12;;;;;;;18.13;11.77;;;20.50;40.60;;;;;;4976431;28;20215;-78
2022/03/28 15:46:41;;;;;;;14.13;10.97;;;20.70;42.10;;;;;;4977086;28;20253;-80
2022/03/28 15:49:09;;;;;;;15.73;11.83;;;20.50;40.60;;;;;;4976561;28;20211;-79
2022/03/28 15:51:38;;;;;;;16.83;11.50;;;20.40;41.10;;;;;;4976575;28;20218;-80
2022/03/28 15:54:08;;;;;;;16.43;11.40;;;20.50;41.40;;;;;;4972497;28;20222;-76
2022/03/28 15:56:37;;;;;;;16.20;11.20;;;20.40;42.30;;;;;;4976588;28;21095;-77
2022/03/28 15:59:08;;;;;;;17.30;10.97;;;20.40;43.90;;;;;;4976779;28;20210;-78
2022/03/28 16:01:40;;;;;;;13.27;10.03;;;20.30;42.80;;;;;;4976654;28;20673;-75
2022/03/28 16:04:11;;;;;;;15.83;11.50;;;20.00;42.40;;;;;;4976436;28;20226;-79
2022/03/28 16:06:42;;;;;;;16.83;10.97;;;20.00;42.30;;;;;;4976631;28;20221;-79
2022/03/28 16:09:14;;;;;;;17.27;10.27;;;19.80;42.40;;;;;;4976049;28;20665;-76
2022/03/28 16:11:42;;;;;;;14.53;10.53;;;19.70;44.00;;;;;;4976273;28;20290;-80
2022/03/28 16:14:13;;;;;;;14.13;10.60;;;19.70;44.50;;;;;;4976463;28;20215;-79
2022/03/28 16:16:43;;;;;;;17.00;10.63;;;19.60;43.50;;;;;;4975759;28;20227;-78
2022/03/28 16:19:12;;;;;;;14.60;10.27;;;19.40;43.30;;;;;;4974416;28;20579;-79
2022/03/28 16:21:42;;;;;;;16.90;11.13;;;19.50;43.10;;;;;;4975918;28;20550;-76
2022/03/28 16:24:13;;;;;;;13.70;10.50;;;19.30;42.90;;;;;;4975749;28;20219;-76
2022/03/28 16:26:44;;;;;;;17.03;10.50;;;19.20;41.60;;;;;;4974825;28;20239;-78
2022/03/28 16:29:12;;;;;;;15.67;10.90;;;19.10;42.60;;;;;;4976518;28;20210;-79
2022/03/28 16:31:43;;;;;;;16.20;10.93;;;18.90;42.30;;;;;;4977956;28;20207;-78
2022/03/28 16:34:11;;;;;;;20.30;11.80;;;18.80;43.30;;;;;;4978052;28;20207;-79
2022/03/28 16:36:39;;;;;;;19.63;11.23;;;18.60;42.30;;;;;;4976164;28;20242;-79
2022/03/28 16:39:10;;;;;;;13.70;10.07;;;18.50;42.70;;;;;;4977629;28;20288;-76
2022/03/28 16:41:41;;;;;;;14.27;9.77;;;18.40;42.40;;;;;;4976710;28;20231;-79
2022/03/28 16:44:09;;;;;;;13.10;9.83;;;18.20;42.90;;;;;;4977406;28;20194;-74
2022/03/28 16:46:38;;;;;;;15.40;9.43;;;18.10;43.20;;;;;;4972967;28;20250;-77
2022/03/28 16:49:06;;;;;;;15.27;10.43;;;18.00;43.90;;;;;;4977866;28;20207;-76
2022/03/28 16:51:36;;;;;;;13.57;9.53;;;17.90;42.80;;;;;;4971025;28;20211;-78
2022/03/28 16:54:05;;;;;;;16.90;11.90;;;17.80;43.00;;;;;;4980994;28;20249;-76